sensor_id;sensor_type;location;lat;lon;timestamp;P1;durP1;ratioP1;P2;durP2;ratioP2
27895;SDS011;15241;48.374;10.876;2022-11-15T00:01:23;10.10;;;6.60;;
27895;SDS011;15241;48.374;10.876;2022-11-15T00:06:22;12.00;;;6.55;;
27895;SDS011;15241;48.374;10.876;2022-11-15T00:11:20;9.00;;;6.15;;
27895;SDS011;15241;48.374;10.876;2022-11-15T00:16:19;8.70;;;5.90;;
27895;SDS011;15241;48.374;10.876;2022-11-15T00:21:18;12.93;;;5.95;;
27895;SDS011;15241;48.374;10.876;2022-11-15T00:26:17;7.42;;;5.37;;
27895;SDS011;15241;48.374;10.876;2022-11-15T00:31:17;9.20;;;6.03;;
27895;SDS011;15241;48.374;10.876;2022-11-15T00:36:16;8.60;;;5.85;;
27895;SDS011;15241;48.374;10.876;2022-11-15T00:41:14;7.78;;;5.30;;
27895;SDS011;15241;48.374;10.876;2022-11-15T00:46:13;9.48;;;5.53;;
27895;SDS011;15241;48.374;10.876;2022-11-15T00:51:12;6.87;;;5.03;;
27895;SDS011;15241;48.374;10.876;2022-11-15T00:56:11;8.48;;;5.42;;
27895;SDS011;15241;48.374;10.876;2022-11-15T01:01:11;7.78;;;5.15;;
27895;SDS011;15241;48.374;10.876;2022-11-15T01:06:11;7.67;;;5.50;;
27895;SDS011;15241;48.374;10.876;2022-11-15T01:11:10;7.55;;;5.17;;
27895;SDS011;15241;48.374;10.876;2022-11-15T01:16:10;10.03;;;5.53;;
27895;SDS011;15241;48.374;10.876;2022-11-15T01:21:11;9.78;;;5.97;;
27895;SDS011;15241;48.374;10.876;2022-11-15T01:26:13;9.38;;;5.75;;
27895;SDS011;15241;48.374;10.876;2022-11-15T01:31:13;7.90;;;5.40;;
27895;SDS011;15241;48.374;10.876;2022-11-15T01:36:14;10.65;;;5.50;;
27895;SDS011;15241;48.374;10.876;2022-11-15T01:41:18;8.98;;;5.65;;
27895;SDS011;15241;48.374;10.876;2022-11-15T01:51:21;7.72;;;5.37;;
27895;SDS011;15241;48.374;10.876;2022-11-15T01:56:23;7.33;;;5.00;;
27895;SDS011;15241;48.374;10.876;2022-11-15T02:01:24;7.20;;;5.25;;
27895;SDS011;15241;48.374;10.876;2022-11-15T02:06:25;8.23;;;5.22;;
27895;SDS011;15241;48.374;10.876;2022-11-15T02:11:24;8.60;;;5.20;;
27895;SDS011;15241;48.374;10.876;2022-11-15T02:16:25;9.33;;;6.08;;
27895;SDS011;15241;48.374;10.876;2022-11-15T02:21:28;7.93;;;4.80;;
27895;SDS011;15241;48.374;10.876;2022-11-15T02:32:25;9.48;;;5.05;;
27895;SDS011;15241;48.374;10.876;2022-11-15T02:37:27;6.97;;;4.85;;
27895;SDS011;15241;48.374;10.876;2022-11-15T02:42:28;6.97;;;5.05;;
27895;SDS011;15241;48.374;10.876;2022-11-15T02:52:47;8.43;;;5.25;;
27895;SDS011;15241;48.374;10.876;2022-11-15T02:57:50;6.97;;;5.00;;
27895;SDS011;15241;48.374;10.876;2022-11-15T03:02:58;8.78;;;5.30;;
27895;SDS011;15241;48.374;10.876;2022-11-15T03:08:04;6.97;;;5.10;;
27895;SDS011;15241;48.374;10.876;2022-11-15T03:13:14;8.15;;;5.20;;
27895;SDS011;15241;48.374;10.876;2022-11-15T03:18:17;8.18;;;5.53;;
27895;SDS011;15241;48.374;10.876;2022-11-15T03:23:18;8.33;;;5.80;;
27895;SDS011;15241;48.374;10.876;2022-11-15T03:28:18;9.78;;;5.53;;
27895;SDS011;15241;48.374;10.876;2022-11-15T03:33:20;9.60;;;5.75;;
27895;SDS011;15241;48.374;10.876;2022-11-15T03:38:21;6.78;;;5.00;;
27895;SDS011;15241;48.374;10.876;2022-11-15T03:43:24;9.28;;;5.37;;
27895;SDS011;15241;48.374;10.876;2022-11-15T03:48:33;8.03;;;5.00;;
27895;SDS011;15241;48.374;10.876;2022-11-15T03:53:33;9.23;;;5.42;;
27895;SDS011;15241;48.374;10.876;2022-11-15T03:58:32;7.87;;;5.20;;
27895;SDS011;15241;48.374;10.876;2022-11-15T04:03:30;7.55;;;5.58;;
27895;SDS011;15241;48.374;10.876;2022-11-15T04:08:29;7.75;;;5.20;;
27895;SDS011;15241;48.374;10.876;2022-11-15T04:13:28;7.37;;;5.10;;
27895;SDS011;15241;48.374;10.876;2022-11-15T04:18:27;8.43;;;5.55;;
27895;SDS011;15241;48.374;10.876;2022-11-15T04:23:26;7.47;;;4.90;;
27895;SDS011;15241;48.374;10.876;2022-11-15T04:28:25;8.23;;;5.53;;
27895;SDS011;15241;48.374;10.876;2022-11-15T04:33:24;8.78;;;5.50;;
27895;SDS011;15241;48.374;10.876;2022-11-15T04:38:23;8.45;;;5.85;;
27895;SDS011;15241;48.374;10.876;2022-11-15T04:43:21;10.98;;;5.60;;
27895;SDS011;15241;48.374;10.876;2022-11-15T04:48:20;7.35;;;5.58;;
27895;SDS011;15241;48.374;10.876;2022-11-15T04:53:19;8.83;;;5.60;;
27895;SDS011;15241;48.374;10.876;2022-11-15T04:58:18;9.40;;;6.05;;
27895;SDS011;15241;48.374;10.876;2022-11-15T05:03:17;9.38;;;5.97;;
27895;SDS011;15241;48.374;10.876;2022-11-15T05:08:16;9.88;;;6.12;;
27895;SDS011;15241;48.374;10.876;2022-11-15T05:13:15;33.90;;;7.85;;
27895;SDS011;15241;48.374;10.876;2022-11-15T05:18:14;10.88;;;5.62;;
27895;SDS011;15241;48.374;10.876;2022-11-15T05:23:13;9.48;;;5.90;;
27895;SDS011;15241;48.374;10.876;2022-11-15T05:28:12;11.70;;;5.78;;
27895;SDS011;15241;48.374;10.876;2022-11-15T05:33:10;8.73;;;5.40;;
27895;SDS011;15241;48.374;10.876;2022-11-15T05:38:09;7.12;;;5.80;;
27895;SDS011;15241;48.374;10.876;2022-11-15T05:43:08;10.60;;;5.78;;
27895;SDS011;15241;48.374;10.876;2022-11-15T05:48:08;9.13;;;5.53;;
27895;SDS011;15241;48.374;10.876;2022-11-15T05:53:07;8.68;;;6.15;;
27895;SDS011;15241;48.374;10.876;2022-11-15T05:58:07;8.43;;;5.97;;
27895;SDS011;15241;48.374;10.876;2022-11-15T06:03:06;6.70;;;5.60;;
27895;SDS011;15241;48.374;10.876;2022-11-15T06:08:05;9.50;;;5.95;;
27895;SDS011;15241;48.374;10.876;2022-11-15T06:13:04;8.88;;;7.12;;
27895;SDS011;15241;48.374;10.876;2022-11-15T06:18:04;10.65;;;7.37;;
27895;SDS011;15241;48.374;10.876;2022-11-15T06:23:03;9.38;;;6.42;;
27895;SDS011;15241;48.374;10.876;2022-11-15T06:28:03;13.83;;;7.42;;
27895;SDS011;15241;48.374;10.876;2022-11-15T06:33:03;9.80;;;6.62;;
27895;SDS011;15241;48.374;10.876;2022-11-15T06:38:03;11.38;;;7.30;;
27895;SDS011;15241;48.374;10.876;2022-11-15T06:43:03;11.80;;;7.20;;
27895;SDS011;15241;48.374;10.876;2022-11-15T06:48:03;29.25;;;20.68;;
27895;SDS011;15241;48.374;10.876;2022-11-15T06:53:03;11.80;;;7.62;;
27895;SDS011;15241;48.374;10.876;2022-11-15T06:58:02;11.12;;;6.55;;
27895;SDS011;15241;48.374;10.876;2022-11-15T07:03:01;8.88;;;6.45;;
27895;SDS011;15241;48.374;10.876;2022-11-15T07:08:00;11.63;;;6.60;;
27895;SDS011;15241;48.374;10.876;2022-11-15T07:12:59;10.60;;;6.90;;
27895;SDS011;15241;48.374;10.876;2022-11-15T07:18:00;14.28;;;7.72;;
27895;SDS011;15241;48.374;10.876;2022-11-15T07:23:00;10.25;;;6.78;;
27895;SDS011;15241;48.374;10.876;2022-11-15T07:27:59;17.55;;;7.45;;
27895;SDS011;15241;48.374;10.876;2022-11-15T07:32:59;13.95;;;8.18;;
27895;SDS011;15241;48.374;10.876;2022-11-15T07:37:59;17.67;;;8.73;;
27895;SDS011;15241;48.374;10.876;2022-11-15T07:42:59;11.80;;;7.22;;
27895;SDS011;15241;48.374;10.876;2022-11-15T07:47:58;20.88;;;8.88;;
27895;SDS011;15241;48.374;10.876;2022-11-15T07:52:58;13.93;;;8.63;;
27895;SDS011;15241;48.374;10.876;2022-11-15T07:58:00;16.07;;;9.35;;
27895;SDS011;15241;48.374;10.876;2022-11-15T08:03:03;18.92;;;9.35;;
27895;SDS011;15241;48.374;10.876;2022-11-15T08:08:04;15.35;;;9.40;;
27895;SDS011;15241;48.374;10.876;2022-11-15T08:13:05;15.75;;;7.80;;
27895;SDS011;15241;48.374;10.876;2022-11-15T08:18:06;15.83;;;7.90;;
27895;SDS011;15241;48.374;10.876;2022-11-15T08:23:08;10.85;;;7.40;;
27895;SDS011;15241;48.374;10.876;2022-11-15T08:28:09;14.87;;;7.60;;
27895;SDS011;15241;48.374;10.876;2022-11-15T08:33:10;9.33;;;5.80;;
27895;SDS011;15241;48.374;10.876;2022-11-15T08:38:10;11.18;;;5.75;;
27895;SDS011;15241;48.374;10.876;2022-11-15T08:43:09;9.60;;;5.87;;
27895;SDS011;15241;48.374;10.876;2022-11-15T08:48:08;8.60;;;5.60;;
27895;SDS011;15241;48.374;10.876;2022-11-15T08:53:07;7.42;;;4.75;;
27895;SDS011;15241;48.374;10.876;2022-11-15T08:58:07;9.05;;;4.85;;
27895;SDS011;15241;48.374;10.876;2022-11-15T09:03:06;6.87;;;4.97;;
27895;SDS011;15241;48.374;10.876;2022-11-15T09:08:05;5.35;;;4.40;;
27895;SDS011;15241;48.374;10.876;2022-11-15T09:13:04;6.42;;;4.67;;
27895;SDS011;15241;48.374;10.876;2022-11-15T09:18:03;8.13;;;4.80;;
27895;SDS011;15241;48.374;10.876;2022-11-15T09:23:02;7.00;;;4.87;;
27895;SDS011;15241;48.374;10.876;2022-11-15T09:28:05;7.37;;;4.80;;
27895;SDS011;15241;48.374;10.876;2022-11-15T09:33:07;8.00;;;4.10;;
27895;SDS011;15241;48.374;10.876;2022-11-15T09:38:07;4.45;;;3.55;;
27895;SDS011;15241;48.374;10.876;2022-11-15T09:43:13;7.10;;;3.90;;
27895;SDS011;15241;48.374;10.876;2022-11-15T09:48:26;4.35;;;3.37;;
27895;SDS011;15241;48.374;10.876;2022-11-15T09:53:36;3.72;;;3.33;;
27895;SDS011;15241;48.374;10.876;2022-11-15T09:58:38;3.87;;;3.22;;
27895;SDS011;15241;48.374;10.876;2022-11-15T10:03:39;3.87;;;3.02;;
27895;SDS011;15241;48.374;10.876;2022-11-15T10:08:47;5.07;;;3.43;;
27895;SDS011;15241;48.374;10.876;2022-11-15T10:13:50;4.50;;;2.95;;
27895;SDS011;15241;48.374;10.876;2022-11-15T10:18:52;3.30;;;3.10;;
27895;SDS011;15241;48.374;10.876;2022-11-15T10:28:51;3.70;;;3.15;;
27895;SDS011;15241;48.374;10.876;2022-11-15T10:33:50;4.50;;;3.12;;
27895;SDS011;15241;48.374;10.876;2022-11-15T10:38:52;3.80;;;3.33;;
27895;SDS011;15241;48.374;10.876;2022-11-15T10:44:02;3.70;;;3.40;;
27895;SDS011;15241;48.374;10.876;2022-11-15T10:49:13;3.65;;;3.35;;
27895;SDS011;15241;48.374;10.876;2022-11-15T10:54:13;4.28;;;4.08;;
27895;SDS011;15241;48.374;10.876;2022-11-15T10:59:16;5.97;;;3.80;;
27895;SDS011;15241;48.374;10.876;2022-11-15T11:04:17;4.60;;;4.30;;
27895;SDS011;15241;48.374;10.876;2022-11-15T11:09:23;5.03;;;4.60;;
27895;SDS011;15241;48.374;10.876;2022-11-15T11:14:27;5.08;;;4.78;;
27895;SDS011;15241;48.374;10.876;2022-11-15T11:19:31;5.10;;;4.80;;
27895;SDS011;15241;48.374;10.876;2022-11-15T11:24:53;6.03;;;5.62;;
27895;SDS011;15241;48.374;10.876;2022-11-15T11:30:02;5.42;;;5.00;;
27895;SDS011;15241;48.374;10.876;2022-11-15T11:35:08;5.90;;;5.50;;
27895;SDS011;15241;48.374;10.876;2022-11-15T11:40:14;6.40;;;5.92;;
27895;SDS011;15241;48.374;10.876;2022-11-15T11:45:18;7.05;;;6.50;;
27895;SDS011;15241;48.374;10.876;2022-11-15T11:50:25;7.12;;;6.62;;
27895;SDS011;15241;48.374;10.876;2022-11-15T11:55:26;6.75;;;6.28;;
27895;SDS011;15241;48.374;10.876;2022-11-15T12:00:27;6.70;;;6.25;;
27895;SDS011;15241;48.374;10.876;2022-11-15T12:05:30;7.35;;;6.85;;
27895;SDS011;15241;48.374;10.876;2022-11-15T12:10:32;8.03;;;7.62;;
27895;SDS011;15241;48.374;10.876;2022-11-15T12:15:33;8.75;;;8.20;;
27895;SDS011;15241;48.374;10.876;2022-11-15T12:20:35;9.10;;;8.63;;
27895;SDS011;15241;48.374;10.876;2022-11-15T12:25:40;8.98;;;8.50;;
27895;SDS011;15241;48.374;10.876;2022-11-15T12:30:41;8.73;;;8.30;;
27895;SDS011;15241;48.374;10.876;2022-11-15T12:35:43;8.60;;;8.20;;
27895;SDS011;15241;48.374;10.876;2022-11-15T12:51:10;8.90;;;8.50;;
27895;SDS011;15241;48.374;10.876;2022-11-15T12:56:17;8.15;;;7.75;;
27895;SDS011;15241;48.374;10.876;2022-11-15T13:06:52;6.62;;;6.20;;
27895;SDS011;15241;48.374;10.876;2022-11-15T13:11:52;5.90;;;5.40;;
27895;SDS011;15241;48.374;10.876;2022-11-15T13:16:56;6.40;;;4.90;;
27895;SDS011;15241;48.374;10.876;2022-11-15T13:21:56;5.85;;;5.05;;
27895;SDS011;15241;48.374;10.876;2022-11-15T13:31:52;4.20;;;3.90;;
27895;SDS011;15241;48.374;10.876;2022-11-15T13:36:51;4.90;;;4.37;;
27895;SDS011;15241;48.374;10.876;2022-11-15T13:41:51;7.30;;;3.75;;
27895;SDS011;15241;48.374;10.876;2022-11-15T13:47:00;6.35;;;3.70;;
27895;SDS011;15241;48.374;10.876;2022-11-15T13:52:02;6.03;;;3.77;;
27895;SDS011;15241;48.374;10.876;2022-11-15T13:57:04;5.97;;;4.20;;
27895;SDS011;15241;48.374;10.876;2022-11-15T14:02:15;6.28;;;4.05;;
27895;SDS011;15241;48.374;10.876;2022-11-15T14:07:17;4.67;;;4.28;;
27895;SDS011;15241;48.374;10.876;2022-11-15T14:12:29;3.83;;;3.42;;
27895;SDS011;15241;48.374;10.876;2022-11-15T14:17:36;4.40;;;3.45;;
27895;SDS011;15241;48.374;10.876;2022-11-15T14:22:35;5.35;;;3.85;;
27895;SDS011;15241;48.374;10.876;2022-11-15T14:27:34;9.25;;;3.92;;
27895;SDS011;15241;48.374;10.876;2022-11-15T14:32:39;6.90;;;4.28;;
27895;SDS011;15241;48.374;10.876;2022-11-15T14:37:39;4.65;;;3.20;;
27895;SDS011;15241;48.374;10.876;2022-11-15T14:42:38;5.22;;;3.45;;
27895;SDS011;15241;48.374;10.876;2022-11-15T14:47:37;4.87;;;3.30;;
27895;SDS011;15241;48.374;10.876;2022-11-15T14:52:36;3.55;;;3.00;;
27895;SDS011;15241;48.374;10.876;2022-11-15T14:57:35;5.12;;;3.45;;
27895;SDS011;15241;48.374;10.876;2022-11-15T15:02:34;5.90;;;3.52;;
27895;SDS011;15241;48.374;10.876;2022-11-15T15:07:33;5.83;;;3.40;;
27895;SDS011;15241;48.374;10.876;2022-11-15T15:12:32;6.72;;;4.12;;
27895;SDS011;15241;48.374;10.876;2022-11-15T15:17:31;10.58;;;4.37;;
27895;SDS011;15241;48.374;10.876;2022-11-15T15:22:30;7.30;;;4.17;;
27895;SDS011;15241;48.374;10.876;2022-11-15T15:27:29;10.30;;;4.47;;
27895;SDS011;15241;48.374;10.876;2022-11-15T15:32:28;7.65;;;4.60;;
27895;SDS011;15241;48.374;10.876;2022-11-15T15:37:27;6.55;;;4.03;;
27895;SDS011;15241;48.374;10.876;2022-11-15T15:42:27;14.53;;;4.60;;
27895;SDS011;15241;48.374;10.876;2022-11-15T15:47:26;8.93;;;4.03;;
27895;SDS011;15241;48.374;10.876;2022-11-15T15:52:25;8.90;;;5.58;;
27895;SDS011;15241;48.374;10.876;2022-11-15T15:57:24;8.48;;;4.70;;
27895;SDS011;15241;48.374;10.876;2022-11-15T16:02:23;9.78;;;5.37;;
27895;SDS011;15241;48.374;10.876;2022-11-15T16:07:22;10.00;;;5.22;;
27895;SDS011;15241;48.374;10.876;2022-11-15T16:12:21;11.00;;;4.30;;
27895;SDS011;15241;48.374;10.876;2022-11-15T16:17:20;9.95;;;4.47;;
27895;SDS011;15241;48.374;10.876;2022-11-15T16:22:20;8.43;;;4.67;;
27895;SDS011;15241;48.374;10.876;2022-11-15T16:27:20;9.35;;;4.47;;
27895;SDS011;15241;48.374;10.876;2022-11-15T16:32:19;11.68;;;4.70;;
27895;SDS011;15241;48.374;10.876;2022-11-15T16:37:20;10.68;;;5.20;;
27895;SDS011;15241;48.374;10.876;2022-11-15T16:42:20;14.55;;;4.97;;
27895;SDS011;15241;48.374;10.876;2022-11-15T16:47:19;11.85;;;5.25;;
27895;SDS011;15241;48.374;10.876;2022-11-15T16:52:18;8.55;;;4.83;;
27895;SDS011;15241;48.374;10.876;2022-11-15T16:57:17;19.00;;;5.58;;
27895;SDS011;15241;48.374;10.876;2022-11-15T17:02:16;8.60;;;5.65;;
27895;SDS011;15241;48.374;10.876;2022-11-15T17:07:15;15.43;;;6.12;;
27895;SDS011;15241;48.374;10.876;2022-11-15T17:12:14;11.05;;;5.35;;
27895;SDS011;15241;48.374;10.876;2022-11-15T17:17:13;11.50;;;5.62;;
27895;SDS011;15241;48.374;10.876;2022-11-15T17:22:12;17.00;;;6.40;;
27895;SDS011;15241;48.374;10.876;2022-11-15T17:27:11;11.08;;;6.62;;
27895;SDS011;15241;48.374;10.876;2022-11-15T17:32:10;17.12;;;8.88;;
27895;SDS011;15241;48.374;10.876;2022-11-15T17:37:08;15.08;;;7.87;;
27895;SDS011;15241;48.374;10.876;2022-11-15T17:42:08;10.55;;;7.10;;
27895;SDS011;15241;48.374;10.876;2022-11-15T17:47:07;13.65;;;7.75;;
27895;SDS011;15241;48.374;10.876;2022-11-15T17:52:06;13.83;;;7.47;;
27895;SDS011;15241;48.374;10.876;2022-11-15T17:57:05;13.13;;;7.97;;
27895;SDS011;15241;48.374;10.876;2022-11-15T18:02:04;16.02;;;8.93;;
27895;SDS011;15241;48.374;10.876;2022-11-15T18:07:02;18.27;;;8.30;;
27895;SDS011;15241;48.374;10.876;2022-11-15T18:12:01;16.65;;;9.25;;
27895;SDS011;15241;48.374;10.876;2022-11-15T18:17:01;17.23;;;9.18;;
27895;SDS011;15241;48.374;10.876;2022-11-15T18:21:59;14.00;;;8.50;;
27895;SDS011;15241;48.374;10.876;2022-11-15T18:26:59;11.43;;;7.55;;
27895;SDS011;15241;48.374;10.876;2022-11-15T18:31:58;13.18;;;7.37;;
27895;SDS011;15241;48.374;10.876;2022-11-15T18:36:57;14.28;;;8.48;;
27895;SDS011;15241;48.374;10.876;2022-11-15T18:41:56;12.07;;;8.33;;
27895;SDS011;15241;48.374;10.876;2022-11-15T18:46:56;16.60;;;9.70;;
27895;SDS011;15241;48.374;10.876;2022-11-15T18:51:54;11.12;;;8.30;;
27895;SDS011;15241;48.374;10.876;2022-11-15T18:56:53;12.65;;;8.18;;
27895;SDS011;15241;48.374;10.876;2022-11-15T19:01:52;10.20;;;7.75;;
27895;SDS011;15241;48.374;10.876;2022-11-15T19:06:51;13.43;;;8.53;;
27895;SDS011;15241;48.374;10.876;2022-11-15T19:11:50;22.32;;;14.40;;
27895;SDS011;15241;48.374;10.876;2022-11-15T19:16:49;21.57;;;15.65;;
27895;SDS011;15241;48.374;10.876;2022-11-15T19:21:48;19.00;;;13.10;;
27895;SDS011;15241;48.374;10.876;2022-11-15T19:26:47;21.12;;;13.88;;
27895;SDS011;15241;48.374;10.876;2022-11-15T19:31:46;27.00;;;13.70;;
27895;SDS011;15241;48.374;10.876;2022-11-15T19:36:45;22.58;;;13.72;;
27895;SDS011;15241;48.374;10.876;2022-11-15T19:41:44;19.95;;;13.80;;
27895;SDS011;15241;48.374;10.876;2022-11-15T19:46:43;19.60;;;14.55;;
27895;SDS011;15241;48.374;10.876;2022-11-15T19:51:42;20.55;;;14.25;;
27895;SDS011;15241;48.374;10.876;2022-11-15T19:56:41;23.65;;;14.85;;
27895;SDS011;15241;48.374;10.876;2022-11-15T20:01:40;25.17;;;16.05;;
27895;SDS011;15241;48.374;10.876;2022-11-15T20:06:39;23.12;;;13.70;;
27895;SDS011;15241;48.374;10.876;2022-11-15T20:11:39;26.45;;;15.83;;
27895;SDS011;15241;48.374;10.876;2022-11-15T20:16:38;22.95;;;15.43;;
27895;SDS011;15241;48.374;10.876;2022-11-15T20:21:38;25.37;;;15.48;;
27895;SDS011;15241;48.374;10.876;2022-11-15T20:26:38;21.65;;;13.40;;
27895;SDS011;15241;48.374;10.876;2022-11-15T20:31:37;22.32;;;13.30;;
27895;SDS011;15241;48.374;10.876;2022-11-15T20:36:36;16.73;;;11.63;;
27895;SDS011;15241;48.374;10.876;2022-11-15T20:41:35;16.93;;;12.47;;
27895;SDS011;15241;48.374;10.876;2022-11-15T20:46:34;16.87;;;10.90;;
27895;SDS011;15241;48.374;10.876;2022-11-15T20:51:33;14.50;;;9.83;;
27895;SDS011;15241;48.374;10.876;2022-11-15T20:56:31;15.80;;;10.15;;
27895;SDS011;15241;48.374;10.876;2022-11-15T21:01:31;16.30;;;9.45;;
27895;SDS011;15241;48.374;10.876;2022-11-15T21:06:29;15.45;;;9.85;;
27895;SDS011;15241;48.374;10.876;2022-11-15T21:11:28;14.85;;;10.20;;
27895;SDS011;15241;48.374;10.876;2022-11-15T21:16:27;12.70;;;8.85;;
27895;SDS011;15241;48.374;10.876;2022-11-15T21:21:26;12.50;;;9.45;;
27895;SDS011;15241;48.374;10.876;2022-11-15T21:26:25;15.28;;;11.48;;
27895;SDS011;15241;48.374;10.876;2022-11-15T21:31:24;22.07;;;13.62;;
27895;SDS011;15241;48.374;10.876;2022-11-15T21:36:23;23.30;;;13.62;;
27895;SDS011;15241;48.374;10.876;2022-11-15T21:41:22;15.90;;;9.88;;
27895;SDS011;15241;48.374;10.876;2022-11-15T21:46:21;13.15;;;8.28;;
27895;SDS011;15241;48.374;10.876;2022-11-15T21:51:20;11.30;;;7.58;;
27895;SDS011;15241;48.374;10.876;2022-11-15T21:56:20;11.43;;;7.30;;
27895;SDS011;15241;48.374;10.876;2022-11-15T22:01:19;12.50;;;8.10;;
27895;SDS011;15241;48.374;10.876;2022-11-15T22:06:19;11.30;;;7.87;;
27895;SDS011;15241;48.374;10.876;2022-11-15T22:11:17;14.50;;;7.85;;
27895;SDS011;15241;48.374;10.876;2022-11-15T22:16:17;12.63;;;8.03;;
27895;SDS011;15241;48.374;10.876;2022-11-15T22:21:16;9.70;;;7.55;;
27895;SDS011;15241;48.374;10.876;2022-11-15T22:26:16;10.75;;;7.22;;
27895;SDS011;15241;48.374;10.876;2022-11-15T22:31:15;12.25;;;7.33;;
27895;SDS011;15241;48.374;10.876;2022-11-15T22:36:14;8.88;;;6.22;;
27895;SDS011;15241;48.374;10.876;2022-11-15T22:41:13;10.53;;;7.40;;
27895;SDS011;15241;48.374;10.876;2022-11-15T22:46:13;11.53;;;7.33;;
27895;SDS011;15241;48.374;10.876;2022-11-15T22:51:12;10.13;;;7.10;;
27895;SDS011;15241;48.374;10.876;2022-11-15T22:56:11;14.58;;;7.22;;
27895;SDS011;15241;48.374;10.876;2022-11-15T23:01:17;10.72;;;7.45;;
27895;SDS011;15241;48.374;10.876;2022-11-15T23:06:16;9.45;;;6.55;;
27895;SDS011;15241;48.374;10.876;2022-11-15T23:11:15;7.85;;;6.03;;
27895;SDS011;15241;48.374;10.876;2022-11-15T23:16:14;11.45;;;6.70;;
27895;SDS011;15241;48.374;10.876;2022-11-15T23:21:14;11.10;;;6.55;;
27895;SDS011;15241;48.374;10.876;2022-11-15T23:26:14;9.95;;;6.87;;
27895;SDS011;15241;48.374;10.876;2022-11-15T23:31:13;8.78;;;6.10;;
27895;SDS011;15241;48.374;10.876;2022-11-15T23:36:12;10.78;;;6.58;;
27895;SDS011;15241;48.374;10.876;2022-11-15T23:41:11;11.12;;;5.97;;
27895;SDS011;15241;48.374;10.876;2022-11-15T23:46:10;10.72;;;5.75;;
27895;SDS011;15241;48.374;10.876;2022-11-15T23:51:09;7.28;;;5.62;;
27895;SDS011;15241;48.374;10.876;2022-11-15T23:56:09;8.13;;;6.10;;
